Time;durP1;ratioP1;P1;durP2;ratioP2;P2;SDS_P1;SDS_P2;PMS_P1;PMS_P2;Temp;Humidity;BMP_temperature;BMP_pressure;BME280_temperature;BME280_humidity;BME280_pressure;Samples;Min_cycle;Max_cycle;Signal;HPM_P1;HPM_P2
2022/10/19 00:01:38;;;;;;;5.63;5.35;;;11.50;99.90;;;;;;4156214;28;20057;-56
2022/10/19 00:04:00;;;;;;;5.45;5.03;;;11.60;99.90;;;;;;4150846;28;20079;-56
2022/10/19 00:06:31;;;;;;;4.95;4.53;;;11.60;99.90;;;;;;4153310;28;20112;-57
2022/10/19 00:08:56;;;;;;;4.50;4.40;;;11.50;99.90;;;;;;4156093;28;20053;-56
2022/10/19 00:11:16;;;;;;;4.50;4.40;;;11.60;99.90;;;;;;4164192;28;20056;-56
2022/10/19 00:13:38;;;;;;;4.93;4.65;;;11.70;99.90;;;;;;4154013;28;20107;-57
2022/10/19 00:15:58;;;;;;;4.78;4.65;;;11.70;99.90;;;;;;4147741;28;20540;-56
2022/10/19 00:18:19;;;;;;;5.05;4.65;;;11.70;99.90;;;;;;4156889;28;20451;-57
2022/10/19 00:20:39;;;;;;;4.43;4.18;;;11.70;99.90;;;;;;4160268;28;20052;-56
2022/10/19 00:23:00;;;;;;;3.50;3.40;;;11.60;99.90;;;;;;4150399;28;20063;-56
2022/10/19 00:25:20;;;;;;;4.53;4.15;;;11.50;99.90;;;;;;4153180;28;20058;-56
2022/10/19 00:27:41;;;;;;;4.75;4.60;;;11.60;99.90;;;;;;4153849;28;20060;-56
2022/10/19 00:30:01;;;;;;;4.82;4.63;;;11.70;99.90;;;;;;4156442;28;20519;-57
2022/10/19 00:32:21;;;;;;;4.88;4.57;;;11.60;99.90;;;;;;4158533;28;20056;-57
2022/10/19 00:34:42;;;;;;;5.03;4.93;;;11.70;99.90;;;;;;4117992;28;20139;-57
2022/10/19 00:37:04;;;;;;;5.85;5.50;;;11.60;99.90;;;;;;4121717;28;20117;-57
2022/10/19 00:39:25;;;;;;;4.53;4.00;;;11.60;99.90;;;;;;4121746;28;20088;-56
2022/10/19 00:41:46;;;;;;;5.28;5.07;;;11.70;99.90;;;;;;4120768;28;20077;-57
2022/10/19 00:44:13;;;;;;;4.47;4.30;;;11.60;99.90;;;;;;4122131;28;20065;-57
2022/10/19 00:46:36;;;;;;;4.53;4.43;;;11.50;99.90;;;;;;4121414;28;20053;-57
2022/10/19 00:49:08;;;;;;;5.47;5.18;;;11.50;99.90;;;;;;4123019;28;20049;-56
2022/10/19 00:51:34;;;;;;;5.28;5.03;;;11.50;99.90;;;;;;4125663;28;20109;-57
2022/10/19 00:53:55;;;;;;;4.45;4.35;;;11.50;99.90;;;;;;4122223;28;20053;-56
2022/10/19 00:56:17;;;;;;;5.47;5.07;;;11.30;99.90;;;;;;4121346;28;20053;-57
2022/10/19 00:58:39;;;;;;;5.18;4.88;;;11.10;99.90;;;;;;4119729;28;20417;-56
2022/10/19 01:01:04;;;;;;;4.60;4.30;;;11.10;99.90;;;;;;4116816;28;20053;-57
2022/10/19 01:03:24;;;;;;;4.80;4.50;;;11.00;99.90;;;;;;4122134;28;20154;-57
2022/10/19 01:05:45;;;;;;;4.80;4.53;;;10.90;99.90;;;;;;4125493;28;20065;-57
2022/10/19 01:08:07;;;;;;;4.57;4.47;;;10.90;99.90;;;;;;4123852;28;20109;-57
2022/10/19 01:10:51;;;;;;;5.97;5.78;;;10.90;99.90;;;;;;4127846;28;20089;-56
2022/10/19 01:13:32;;;;;;;5.13;4.93;;;10.90;99.90;;;;;;4131406;28;20100;-57
2022/10/19 01:16:17;;;;;;;9.07;7.22;;;11.00;99.90;;;;;;4118110;28;20053;-57
2022/10/19 01:18:47;;;;;;;6.30;5.93;;;11.00;99.90;;;;;;4118947;28;20072;-57
2022/10/19 01:21:22;;;;;;;11.05;6.80;;;11.00;99.90;;;;;;4123835;28;20105;-57
2022/10/19 01:23:58;;;;;;;15.15;6.60;;;10.80;99.90;;;;;;4126545;28;20081;-57
2022/10/19 01:27:10;;;;;;;5.95;5.65;;;10.70;99.90;;;;;;4123678;28;20102;-57
2022/10/19 01:30:04;;;;;;;19.38;5.20;;;10.90;99.90;;;;;;4126496;28;20058;-57
2022/10/19 01:32:56;;;;;;;23.48;4.80;;;10.70;99.90;;;;;;4128725;28;20097;-57
2022/10/19 01:35:16;;;;;;;4.28;4.18;;;10.70;99.90;;;;;;4128617;28;20052;-57
2022/10/19 01:37:48;;;;;;;3.80;3.70;;;10.60;99.90;;;;;;4130082;28;20056;-57
2022/10/19 01:40:23;;;;;;;4.40;4.10;;;10.70;99.90;;;;;;4130473;28;20614;-57
2022/10/19 01:42:57;;;;;;;4.47;4.30;;;10.80;99.90;;;;;;4128945;28;20100;-57
2022/10/19 01:45:39;;;;;;;4.47;4.28;;;10.70;99.90;;;;;;4128837;28;20423;-57
2022/10/19 01:48:09;;;;;;;4.03;3.92;;;10.70;99.90;;;;;;4127546;28;20049;-57
2022/10/19 01:50:59;;;;;;;5.07;4.68;;;10.70;99.90;;;;;;4129916;28;20049;-57
2022/10/19 01:53:20;;;;;;;4.93;4.75;;;10.60;99.90;;;;;;4128351;28;20137;-57
2022/10/19 01:55:43;;;;;;;4.60;4.50;;;10.60;99.90;;;;;;4130142;28;20402;-57
2022/10/19 01:58:08;;;;;;;3.95;3.83;;;10.60;99.90;;;;;;4129050;28;20057;-57
2022/10/19 02:00:33;;;;;;;4.15;4.05;;;10.60;99.90;;;;;;4129120;28;20161;-57
2022/10/19 02:02:55;;;;;;;4.20;3.97;;;10.60;99.90;;;;;;4128991;28;20050;-57
2022/10/19 02:05:20;;;;;;;4.95;4.85;;;10.60;99.90;;;;;;4127852;28;20264;-57
2022/10/19 02:07:45;;;;;;;4.65;4.45;;;10.60;99.90;;;;;;4119268;28;20569;-57
2022/10/19 02:10:06;;;;;;;5.97;4.40;;;10.60;99.90;;;;;;4117532;28;20062;-57
2022/10/19 02:12:29;;;;;;;4.15;3.95;;;10.60;99.90;;;;;;4116903;28;20050;-56
2022/10/19 02:14:55;;;;;;;;;;;10.60;99.90;;;;;;4117903;28;20684;-57
2022/10/19 02:17:26;;;;;;;5.40;5.22;;;10.70;99.90;;;;;;4127291;28;19928;-57
2022/10/19 02:19:46;;;;;;;5.82;5.38;;;10.80;99.90;;;;;;4125350;28;20061;-57
2022/10/19 02:22:08;;;;;;;5.55;5.25;;;10.70;99.90;;;;;;4123344;28;20089;-57
2022/10/19 02:24:29;;;;;;;6.03;4.53;;;10.50;99.90;;;;;;4124320;28;20077;-57
2022/10/19 02:26:49;;;;;;;4.57;4.35;;;10.50;99.90;;;;;;4127823;28;20138;-57
2022/10/19 02:29:12;;;;;;;4.65;4.55;;;10.70;99.90;;;;;;4129945;28;20053;-57
2022/10/19 02:31:33;;;;;;;5.05;4.85;;;10.60;99.90;;;;;;4119723;28;20517;-56
2022/10/19 02:33:54;;;;;;;4.65;4.43;;;10.50;99.90;;;;;;4141887;28;20061;-56
2022/10/19 02:36:14;;;;;;;5.47;5.28;;;10.40;99.90;;;;;;4158864;28;20423;-56
2022/10/19 02:38:35;;;;;;;4.60;4.43;;;10.20;99.90;;;;;;4156911;28;20142;-57
2022/10/19 02:41:17;;;;;;;4.72;4.53;;;10.20;99.90;;;;;;4154989;28;20096;-57
2022/10/19 02:43:41;;;;;;;5.27;4.80;;;10.20;99.90;;;;;;4152416;28;20057;-57
2022/10/19 02:46:09;;;;;;;7.40;4.38;;;10.30;99.90;;;;;;4152015;28;20527;-57
2022/10/19 02:48:32;;;;;;;4.85;4.55;;;10.30;99.90;;;;;;4148787;28;20056;-57
2022/10/19 02:50:52;;;;;;;;;;;10.20;99.90;;;;;;4151506;28;20053;-57
2022/10/19 02:53:14;;;;;;;4.70;4.60;;;10.10;99.90;;;;;;4147424;28;19928;-57
2022/10/19 02:55:34;;;;;;;4.97;4.80;;;9.90;99.90;;;;;;4148773;28;20092;-57
2022/10/19 02:57:56;;;;;;;4.97;4.65;;;10.10;99.90;;;;;;4156212;28;20140;-57
2022/10/19 03:00:16;;;;;;;4.53;4.43;;;10.20;99.90;;;;;;4154491;28;20061;-57
2022/10/19 03:02:37;;;;;;;5.07;3.55;;;10.40;99.90;;;;;;4158887;28;20562;-57
2022/10/19 03:04:57;;;;;;;6.45;5.03;;;10.50;99.90;;;;;;4155785;28;20185;-57
2022/10/19 03:07:20;;;;;;;4.82;4.68;;;10.30;99.90;;;;;;4159284;28;20072;-57
2022/10/19 03:09:41;;;;;;;4.75;4.32;;;10.10;99.90;;;;;;4151085;28;20141;-57
2022/10/19 03:12:02;;;;;;;5.70;5.30;;;10.00;99.90;;;;;;4157971;28;20059;-57
2022/10/19 03:14:23;;;;;;;5.22;4.88;;;9.80;99.90;;;;;;4158837;28;20052;-57
2022/10/19 03:16:43;;;;;;;6.20;5.78;;;9.80;99.90;;;;;;4157231;28;20073;-57
2022/10/19 03:19:04;;;;;;;10.70;5.90;;;9.90;99.90;;;;;;4157545;28;20083;-57
2022/10/19 03:21:24;;;;;;;13.10;8.90;;;9.90;99.90;;;;;;4152624;28;20544;-57
2022/10/19 03:23:44;;;;;;;20.08;8.73;;;9.80;99.90;;;;;;4150815;28;20084;-56
2022/10/19 03:26:07;;;;;;;5.80;5.70;;;9.90;99.90;;;;;;4148537;28;20056;-57
2022/10/19 03:28:32;;;;;;;5.78;5.68;;;9.90;99.90;;;;;;4151129;28;20085;-56
2022/10/19 03:30:53;;;;;;;4.22;4.13;;;9.80;99.90;;;;;;4154639;28;20051;-57
2022/10/19 03:33:13;;;;;;;2.25;2.25;;;9.90;99.90;;;;;;4151430;28;20091;-57
2022/10/19 03:35:34;;;;;;;2.22;2.13;;;10.00;99.90;;;;;;4155801;28;20055;-57
2022/10/19 03:37:54;;;;;;;1.95;1.95;;;10.00;99.90;;;;;;4154215;28;20057;-57
2022/10/19 03:40:15;;;;;;;2.00;2.00;;;10.10;99.90;;;;;;4157772;28;20413;-56
2022/10/19 03:42:36;;;;;;;2.80;2.70;;;10.10;99.90;;;;;;4151610;28;20412;-57
2022/10/19 03:44:56;;;;;;;2.08;2.08;;;10.00;99.90;;;;;;4159363;28;20099;-57
2022/10/19 03:47:17;;;;;;;3.00;2.90;;;10.00;99.90;;;;;;4156759;28;20087;-57
2022/10/19 03:49:37;;;;;;;3.55;3.35;;;9.90;99.90;;;;;;4149016;28;20096;-57
2022/10/19 03:52:00;;;;;;;3.83;3.63;;;9.80;99.90;;;;;;4149867;28;20431;-57
2022/10/19 03:54:20;;;;;;;86.78;7.13;;;9.70;99.90;;;;;;4152724;28;20053;-57
2022/10/19 03:56:46;;;;;;;19.77;5.13;;;9.60;99.90;;;;;;4154316;28;20129;-57
2022/10/19 03:59:07;;;;;;;31.58;5.50;;;9.40;99.90;;;;;;4156863;28;20524;-57
2022/10/19 04:01:32;;;;;;;3.75;3.65;;;9.40;99.90;;;;;;4155719;28;20531;-57
2022/10/19 04:03:59;;;;;;;49.05;5.07;;;9.40;99.90;;;;;;4157375;28;20056;-57
2022/10/19 04:06:24;;;;;;;37.20;5.80;;;9.40;99.90;;;;;;4146834;28;20108;-57
2022/10/19 04:08:48;;;;;;;43.72;5.75;;;9.30;99.90;;;;;;4155797;28;20044;-56
2022/10/19 04:11:12;;;;;;;;;;;9.30;99.90;;;;;;4150802;28;20096;-57
2022/10/19 04:13:33;;;;;;;34.83;5.75;;;9.20;99.90;;;;;;4153218;28;20435;-57
2022/10/19 04:15:54;;;;;;;5.20;4.22;;;9.20;99.90;;;;;;4155286;28;20053;-57
2022/10/19 04:18:14;;;;;;;96.82;6.50;;;9.20;99.90;;;;;;4157135;28;20085;-57
2022/10/19 04:20:37;;;;;;;12.13;3.75;;;9.20;99.90;;;;;;4157053;28;20059;-57
2022/10/19 04:22:58;;;;;;;19.70;4.90;;;9.20;99.90;;;;;;4161072;28;20099;-57
2022/10/19 04:25:18;;;;;;;41.10;4.93;;;9.20;99.90;;;;;;4156251;28;20088;-57
2022/10/19 04:27:39;;;;;;;2.42;2.42;;;9.20;99.90;;;;;;4148205;28;20080;-57
2022/10/19 04:30:00;;;;;;;11.38;3.95;;;9.20;99.90;;;;;;4156617;28;20104;-58
2022/10/19 04:32:20;;;;;;;3.45;2.58;;;9.20;99.90;;;;;;4156214;28;20103;-57
2022/10/19 04:34:41;;;;;;;8.35;2.97;;;9.20;99.90;;;;;;4121033;28;20569;-57
2022/10/19 04:37:01;;;;;;;2.50;2.50;;;9.20;99.90;;;;;;4121853;28;20045;-57
2022/10/19 04:39:22;;;;;;;4.35;2.80;;;9.30;99.90;;;;;;4120344;28;20081;-57
2022/10/19 04:41:42;;;;;;;2.80;2.80;;;9.20;99.90;;;;;;4113425;28;20786;-58
2022/10/19 04:44:05;;;;;;;10.10;3.88;;;9.20;99.90;;;;;;4114468;28;20517;-57
2022/10/19 04:46:27;;;;;;;39.60;4.30;;;9.10;99.90;;;;;;4118209;28;20222;-58
2022/10/19 04:48:48;;;;;;;2.42;2.42;;;9.20;99.90;;;;;;4117946;28;20478;-57
2022/10/19 04:51:09;;;;;;;3.30;2.78;;;9.30;99.90;;;;;;4123031;28;20052;-57
2022/10/19 04:53:30;;;;;;;2.00;1.90;;;9.20;99.90;;;;;;4122693;28;20061;-57
2022/10/19 04:55:51;;;;;;;3.28;3.05;;;9.30;99.90;;;;;;4120408;28;20057;-57
2022/10/19 04:58:11;;;;;;;3.03;2.92;;;9.20;99.90;;;;;;4117452;28;20116;-57
2022/10/19 05:00:31;;;;;;;4.10;3.90;;;9.10;99.90;;;;;;4125264;28;20490;-57
2022/10/19 05:02:52;;;;;;;3.03;2.92;;;9.10;99.90;;;;;;4126684;28;20165;-57
2022/10/19 05:05:13;;;;;;;3.40;3.20;;;9.10;99.90;;;;;;4121233;28;20056;-58
2022/10/19 05:07:34;;;;;;;3.50;3.30;;;9.20;99.90;;;;;;4116522;28;20532;-58
2022/10/19 05:09:55;;;;;;;3.22;3.22;;;9.30;99.90;;;;;;4119030;28;20082;-58
2022/10/19 05:12:15;;;;;;;3.05;2.85;;;9.30;99.90;;;;;;4121489;28;20129;-57
2022/10/19 05:14:36;;;;;;;3.78;3.47;;;9.30;99.90;;;;;;4122346;28;20100;-58
2022/10/19 05:17:01;;;;;;;4.32;4.03;;;9.30;99.90;;;;;;4124590;28;20049;-57
2022/10/19 05:19:21;;;;;;;4.85;4.30;;;9.30;99.90;;;;;;4125448;28;20061;-57
2022/10/19 05:21:42;;;;;;;3.70;3.47;;;9.40;99.90;;;;;;4126026;28;20053;-57
2022/10/19 05:24:02;;;;;;;5.30;5.20;;;9.40;99.90;;;;;;4124775;28;20094;-57
2022/10/19 05:26:25;;;;;;;5.18;4.97;;;9.40;99.90;;;;;;4116945;28;20054;-58
2022/10/19 05:28:50;;;;;;;9.25;8.85;;;9.40;99.90;;;;;;4122281;28;20049;-58
2022/10/19 05:31:18;;;;;;;9.43;9.23;;;9.50;99.90;;;;;;4123127;28;20129;-58
2022/10/19 05:33:40;;;;;;;5.97;5.63;;;9.40;99.90;;;;;;4142594;28;20053;-58
2022/10/19 05:36:09;;;;;;;4.95;4.53;;;9.50;99.90;;;;;;4155890;28;20393;-58
2022/10/19 05:38:29;;;;;;;4.70;4.25;;;9.50;99.90;;;;;;4156709;28;20402;-58
2022/10/19 05:40:50;;;;;;;3.88;3.47;;;9.50;99.90;;;;;;4148545;28;20867;-58
2022/10/19 05:43:13;;;;;;;4.50;4.40;;;9.50;99.90;;;;;;4147445;28;20053;-57
2022/10/19 05:45:34;;;;;;;4.22;4.13;;;9.50;99.90;;;;;;4154515;28;20060;-58
2022/10/19 05:47:54;;;;;;;4.38;3.90;;;9.40;99.90;;;;;;4153036;28;20103;-58
2022/10/19 05:50:15;;;;;;;4.22;4.13;;;9.40;99.90;;;;;;4158116;28;20061;-60
2022/10/19 05:52:35;;;;;;;4.65;4.55;;;9.40;99.90;;;;;;4158549;28;20127;-60
2022/10/19 05:54:57;;;;;;;5.18;4.88;;;9.30;99.90;;;;;;4153927;28;20394;-60
2022/10/19 05:57:18;;;;;;;5.57;5.30;;;9.20;99.90;;;;;;4162120;28;20067;-60
2022/10/19 05:59:38;;;;;;;6.72;6.05;;;9.10;99.90;;;;;;4155730;28;20060;-60
2022/10/19 06:01:59;;;;;;;4.68;4.47;;;9.00;99.90;;;;;;4153527;28;20053;-61
2022/10/19 06:04:19;;;;;;;4.43;4.15;;;8.80;99.90;;;;;;4157736;28;20065;-60
2022/10/19 06:06:41;;;;;;;6.25;6.05;;;8.80;99.90;;;;;;4154978;28;20057;-59
2022/10/19 06:09:03;;;;;;;6.28;5.72;;;8.90;99.90;;;;;;4153716;28;20044;-60
2022/10/19 06:11:26;;;;;;;6.28;5.72;;;8.80;99.90;;;;;;4158500;28;20053;-60
2022/10/19 06:13:49;;;;;;;8.02;4.50;;;9.00;99.90;;;;;;4155521;28;20135;-60
2022/10/19 06:16:12;;;;;;;4.40;4.20;;;9.00;99.90;;;;;;4157479;28;20128;-59
2022/10/19 06:18:33;;;;;;;;;;;9.20;99.90;;;;;;4153571;28;20064;-61
2022/10/19 06:20:54;;;;;;;5.57;5.47;;;9.20;99.90;;;;;;4153583;28;19928;-61
2022/10/19 06:23:14;;;;;;;6.07;5.93;;;9.20;99.90;;;;;;4151338;28;20239;-60
2022/10/19 06:25:35;;;;;;;6.32;5.82;;;9.30;99.90;;;;;;4153790;28;20092;-60
2022/10/19 06:27:56;;;;;;;6.15;5.78;;;9.20;99.90;;;;;;4155126;28;20598;-61
2022/10/19 06:30:17;;;;;;;6.30;6.20;;;9.10;99.90;;;;;;4156694;28;20135;-60
2022/10/19 06:32:38;;;;;;;6.00;5.50;;;9.00;99.90;;;;;;4159112;28;20056;-61
2022/10/19 06:34:58;;;;;;;5.95;5.72;;;9.00;99.90;;;;;;4154841;28;20056;-61
2022/10/19 06:37:19;;;;;;;4.22;4.13;;;9.00;99.90;;;;;;4152134;28;20056;-60
2022/10/19 06:39:39;;;;;;;4.78;4.63;;;9.10;99.90;;;;;;4150861;28;20112;-61
2022/10/19 06:42:00;;;;;;;3.92;3.83;;;9.10;99.90;;;;;;4153370;28;20397;-60
2022/10/19 06:44:21;;;;;;;3.58;3.45;;;9.20;99.90;;;;;;4159297;28;20057;-61
2022/10/19 06:46:41;;;;;;;3.97;3.40;;;9.20;99.90;;;;;;4156933;28;20056;-61
2022/10/19 06:49:02;;;;;;;4.10;4.00;;;9.30;99.90;;;;;;4153551;28;20420;-61
2022/10/19 06:51:24;;;;;;;2.97;2.92;;;9.50;99.90;;;;;;4153379;28;20051;-61
2022/10/19 06:53:45;;;;;;;3.00;3.00;;;9.60;99.90;;;;;;4152471;28;20480;-59
2022/10/19 06:56:06;;;;;;;4.00;3.80;;;9.80;99.90;;;;;;4147501;28;20367;-60
2022/10/19 06:58:27;;;;;;;4.85;4.65;;;9.90;99.90;;;;;;4154469;28;20052;-60
2022/10/19 07:00:57;;;;;;;4.43;4.22;;;10.00;99.90;;;;;;4154963;28;20077;-61
2022/10/19 07:03:18;;;;;;;4.10;3.90;;;10.10;99.90;;;;;;4158631;28;20472;-61
2022/10/19 07:05:39;;;;;;;5.57;4.00;;;10.20;99.90;;;;;;4154381;28;20100;-61
2022/10/19 07:07:59;;;;;;;4.00;3.90;;;10.30;99.90;;;;;;4154264;28;20140;-61
2022/10/19 07:10:20;;;;;;;3.92;3.83;;;10.40;99.90;;;;;;4168397;28;20056;-61
2022/10/19 07:12:41;;;;;;;4.47;3.95;;;10.60;99.90;;;;;;4152832;28;20135;-59
2022/10/19 07:15:02;;;;;;;3.72;3.63;;;10.50;99.90;;;;;;4161173;28;20057;-60
2022/10/19 07:17:23;;;;;;;3.72;3.60;;;10.50;99.90;;;;;;4152349;28;20045;-61
2022/10/19 07:19:43;;;;;;;4.43;4.03;;;10.60;99.90;;;;;;4152449;28;20057;-61
2022/10/19 07:22:04;;;;;;;4.25;4.15;;;10.60;99.90;;;;;;4152234;28;20056;-61
2022/10/19 07:24:25;;;;;;;3.88;3.58;;;10.80;99.90;;;;;;4150046;28;20501;-60
2022/10/19 07:26:45;;;;;;;3.13;3.03;;;10.90;99.90;;;;;;4154566;28;20076;-60
2022/10/19 07:29:05;;;;;;;3.17;3.08;;;11.00;99.90;;;;;;4152256;28;20100;-61
2022/10/19 07:31:28;;;;;;;3.22;3.13;;;11.10;99.90;;;;;;4159655;28;20056;-60
2022/10/19 07:33:55;;;;;;;4.07;3.97;;;11.20;99.90;;;;;;4155969;28;20136;-61
2022/10/19 07:36:15;;;;;;;3.05;2.95;;;11.30;99.90;;;;;;4149069;28;20048;-60
2022/10/19 07:38:36;;;;;;;3.53;3.42;;;11.50;99.90;;;;;;4154006;28;20532;-60
2022/10/19 07:41:05;;;;;;;4.10;3.83;;;11.50;99.90;;;;;;4153418;28;20053;-62
2022/10/19 07:43:26;;;;;;;3.70;3.53;;;11.50;99.90;;;;;;4150894;28;20132;-61
2022/10/19 07:45:47;;;;;;;3.47;3.38;;;11.60;99.90;;;;;;4154078;28;20048;-62
2022/10/19 07:48:08;;;;;;;3.45;3.35;;;11.70;99.90;;;;;;4166757;28;20044;-62
2022/10/19 07:50:29;;;;;;;4.53;4.13;;;11.70;99.90;;;;;;4157473;28;20085;-62
2022/10/19 07:52:53;;;;;;;4.30;4.13;;;11.80;99.90;;;;;;4151843;28;20129;-62
2022/10/19 07:55:15;;;;;;;5.70;3.70;;;11.90;99.90;;;;;;4151326;28;20053;-61
2022/10/19 07:57:35;;;;;;;5.00;3.85;;;12.00;99.90;;;;;;4154039;28;20053;-61
2022/10/19 07:59:56;;;;;;;4.60;4.30;;;12.00;99.90;;;;;;4150459;28;20104;-60
2022/10/19 08:02:18;;;;;;;4.30;4.07;;;12.20;99.90;;;;;;4153930;28;20043;-61
2022/10/19 08:04:39;;;;;;;4.30;3.95;;;12.30;99.90;;;;;;4154919;28;20500;-61
2022/10/19 08:07:20;;;;;;;3.28;3.15;;;12.50;99.90;;;;;;4153313;28;20513;-61
2022/10/19 08:09:40;;;;;;;3.95;3.75;;;12.60;99.90;;;;;;4150901;28;20048;-61
2022/10/19 08:12:12;;;;;;;4.10;3.75;;;12.70;99.90;;;;;;4150363;28;20060;-61
2022/10/19 08:14:34;;;;;;;3.70;3.60;;;12.90;99.90;;;;;;4148268;28;20108;-61
2022/10/19 08:16:55;;;;;;;6.20;4.45;;;13.00;99.90;;;;;;4148333;28;20053;-61
2022/10/19 08:19:16;;;;;;;4.80;4.70;;;13.10;99.90;;;;;;4150775;28;20230;-61
2022/10/19 08:21:39;;;;;;;4.55;4.28;;;13.20;99.90;;;;;;4152177;28;20056;-61
2022/10/19 08:23:59;;;;;;;4.95;4.78;;;13.30;99.90;;;;;;4153107;28;20119;-61
2022/10/19 08:26:20;;;;;;;3.65;3.45;;;13.40;99.90;;;;;;4152500;28;20145;-62
2022/10/19 08:28:41;;;;;;;5.32;4.95;;;13.60;99.90;;;;;;4150760;28;20075;-61
2022/10/19 08:31:14;;;;;;;4.47;4.18;;;13.60;99.90;;;;;;4151322;28;20171;-61
2022/10/19 08:33:34;;;;;;;5.60;5.00;;;13.70;99.90;;;;;;4146352;28;20056;-61
2022/10/19 08:35:55;;;;;;;4.60;4.45;;;13.90;99.90;;;;;;4152043;28;20052;-61
2022/10/19 08:38:15;;;;;;;5.00;4.90;;;14.00;99.90;;;;;;4148272;28;20451;-61
2022/10/19 08:40:36;;;;;;;8.85;5.50;;;14.10;99.90;;;;;;4151722;28;20064;-61
2022/10/19 08:43:10;;;;;;;3.97;3.72;;;14.20;99.90;;;;;;4154157;28;20537;-61
2022/10/19 08:45:49;;;;;;;5.43;4.80;;;14.30;99.90;;;;;;4151372;28;20052;-61
2022/10/19 08:48:24;;;;;;;4.78;4.35;;;14.40;99.90;;;;;;4152284;28;20107;-61
2022/10/19 08:50:46;;;;;;;7.45;3.83;;;14.50;99.90;;;;;;4165178;28;20044;-61
2022/10/19 08:53:16;;;;;;;5.97;4.50;;;14.60;99.90;;;;;;4149506;28;20052;-61
2022/10/19 08:55:43;;;;;;;5.22;4.90;;;14.70;99.90;;;;;;4157018;28;20044;-61
2022/10/19 08:58:28;;;;;;;5.90;4.65;;;14.80;99.90;;;;;;4153008;28;20049;-61
2022/10/19 09:00:58;;;;;;;5.47;3.58;;;15.00;99.90;;;;;;4151907;28;20049;-61
2022/10/19 09:03:34;;;;;;;4.28;3.72;;;15.10;99.90;;;;;;4152894;28;20072;-61
2022/10/19 09:06:25;;;;;;;3.67;3.45;;;15.20;99.90;;;;;;4149584;28;20060;-61
2022/10/19 09:08:47;;;;;;;4.35;3.58;;;15.40;99.90;;;;;;4149908;28;20448;-61
2022/10/19 09:11:10;;;;;;;3.57;3.27;;;15.60;99.90;;;;;;4156134;28;20129;-60
2022/10/19 09:13:40;;;;;;;3.72;3.40;;;15.70;99.90;;;;;;4147535;28;20048;-60
2022/10/19 09:16:23;;;;;;;4.03;2.72;;;15.90;99.90;;;;;;4152502;28;20120;-61
2022/10/19 09:18:45;;;;;;;4.35;3.92;;;16.10;99.90;;;;;;4154638;28;20053;-61
2022/10/19 09:21:24;;;;;;;3.33;3.15;;;16.30;99.90;;;;;;4150432;28;20052;-60
2022/10/19 09:24:05;;;;;;;3.00;2.90;;;16.50;99.90;;;;;;4155659;28;20049;-61
2022/10/19 09:26:29;;;;;;;7.20;2.83;;;16.70;99.90;;;;;;4156870;28;20133;-60
2022/10/19 09:28:57;;;;;;;2.63;2.53;;;16.80;99.90;;;;;;4156967;28;20088;-60
2022/10/19 09:31:31;;;;;;;2.63;2.47;;;16.90;99.90;;;;;;4155074;28;20107;-61
2022/10/19 09:34:10;;;;;;;2.42;2.35;;;17.10;99.90;;;;;;4155631;28;20531;-61
2022/10/19 09:36:40;;;;;;;3.90;2.60;;;17.30;99.90;;;;;;4157502;28;20512;-61
2022/10/19 09:39:17;;;;;;;3.28;2.33;;;17.50;99.90;;;;;;4152613;28;20417;-61
2022/10/19 09:41:51;;;;;;;2.17;2.05;;;17.70;99.90;;;;;;4156094;28;20053;-59
2022/10/19 09:44:12;;;;;;;2.13;1.85;;;17.90;99.90;;;;;;4156798;28;20257;-61
2022/10/19 09:46:44;;;;;;;2.10;2.00;;;18.00;99.90;;;;;;4150079;28;20165;-60
2022/10/19 09:49:09;;;;;;;3.00;1.90;;;18.30;99.90;;;;;;4155518;28;20479;-60
2022/10/19 09:51:50;;;;;;;3.08;2.10;;;18.50;99.90;;;;;;4158415;28;20134;-60
2022/10/19 09:54:39;;;;;;;2.70;1.67;;;18.70;99.90;;;;;;4156147;28;20117;-61
2022/10/19 09:57:00;;;;;;;2.42;2.25;;;18.90;99.90;;;;;;4162069;28;20570;-61
2022/10/19 09:59:23;;;;;;;3.08;1.80;;;19.20;99.90;;;;;;4157151;28;20056;-61
2022/10/19 10:01:43;;;;;;;3.55;1.98;;;19.30;99.90;;;;;;4159081;28;20112;-58
2022/10/19 10:04:06;;;;;;;3.28;1.92;;;19.60;99.90;;;;;;4161791;28;20051;-58
2022/10/19 10:06:29;;;;;;;2.75;1.40;;;19.70;99.90;;;;;;4157132;28;20056;-58
2022/10/19 10:08:57;;;;;;;4.03;1.65;;;19.90;99.90;;;;;;4160127;28;20056;-58
2022/10/19 10:11:25;;;;;;;3.25;1.38;;;20.10;99.90;;;;;;4156077;28;20051;-58
2022/10/19 10:13:52;;;;;;;1.63;1.52;;;20.20;99.90;;;;;;4155310;28;20053;-58
2022/10/19 10:16:16;;;;;;;3.92;1.75;;;20.40;99.90;;;;;;4156692;28;20461;-58
2022/10/19 10:18:55;;;;;;;2.00;1.90;;;20.70;99.90;;;;;;4158205;28;20092;-58
2022/10/19 10:21:21;;;;;;;1.83;1.60;;;20.90;99.90;;;;;;4154336;28;20052;-58
2022/10/19 10:24:18;;;;;;;3.20;1.40;;;21.60;99.90;;;;;;4162164;28;20176;-58
2022/10/19 10:26:44;;;;;;;6.07;2.00;;;22.00;99.90;;;;;;4164353;28;20057;-58
2022/10/19 10:29:20;;;;;;;2.45;1.48;;;22.10;99.90;;;;;;4153195;28;20048;-58
2022/10/19 10:31:41;;;;;;;1.45;1.35;;;22.30;99.90;;;;;;4152995;28;20053;-58
2022/10/19 10:34:02;;;;;;;1.55;1.40;;;22.20;99.90;;;;;;4156153;28;20412;-58
2022/10/19 10:36:43;;;;;;;1.98;1.25;;;22.10;99.90;;;;;;4157143;28;20057;-57
2022/10/19 10:39:12;;;;;;;30.10;2.58;;;22.10;99.90;;;;;;4153205;28;20061;-58
2022/10/19 10:41:42;;;;;;;2.17;1.38;;;22.50;99.90;;;;;;4157238;28;20048;-58
2022/10/19 10:44:07;;;;;;;2.75;1.40;;;23.00;99.90;;;;;;4154779;28;20055;-57
2022/10/19 10:46:34;;;;;;;1.30;1.30;;;23.20;99.90;;;;;;4147921;28;20104;-57
2022/10/19 10:48:57;;;;;;;2.55;1.20;;;23.60;99.90;;;;;;4148709;28;20096;-58
2022/10/19 10:51:24;;;;;;;1.13;1.00;;;23.80;99.90;;;;;;4152339;28;20041;-58
2022/10/19 10:53:45;;;;;;;1.75;1.58;;;23.90;99.90;;;;;;4156010;28;20480;-58
2022/10/19 10:56:28;;;;;;;2.47;1.55;;;24.10;99.90;;;;;;4155600;28;20449;-58
2022/10/19 10:59:15;;;;;;;1.47;1.37;;;24.50;99.90;;;;;;4152170;28;20049;-58
2022/10/19 11:01:44;;;;;;;1.23;1.13;;;24.10;99.90;;;;;;4149661;28;20420;-58
2022/10/19 11:04:11;;;;;;;3.30;1.30;;;23.90;99.90;;;;;;4159495;28;20049;-58
2022/10/19 11:06:36;;;;;;;1.40;1.30;;;24.20;99.90;;;;;;4145691;28;20505;-58
2022/10/19 11:09:14;;;;;;;1.27;1.20;;;24.40;99.90;;;;;;4152009;28;20516;-58
2022/10/19 11:11:41;;;;;;;1.35;1.10;;;24.90;99.90;;;;;;4156318;28;20052;-58
2022/10/19 11:14:29;;;;;;;1.13;1.00;;;25.10;99.90;;;;;;4154885;28;20053;-58
2022/10/19 11:16:53;;;;;;;1.33;1.23;;;24.90;99.90;;;;;;4157113;28;20151;-58
2022/10/19 11:19:30;;;;;;;1.52;1.15;;;24.90;99.90;;;;;;4151205;28;20044;-58
2022/10/19 11:22:05;;;;;;;1.65;1.55;;;24.90;99.90;;;;;;4154563;28;20060;-58
2022/10/19 11:24:45;;;;;;;4.13;1.20;;;24.80;99.90;;;;;;4152371;28;20107;-57
2022/10/19 11:27:11;;;;;;;1.27;1.27;;;25.00;99.90;;;;;;4154304;28;20631;-59
2022/10/19 11:29:49;;;;;;;1.20;1.10;;;25.30;99.90;;;;;;4156433;28;20525;-58
2022/10/19 11:32:33;;;;;;;2.28;1.30;;;25.50;99.90;;;;;;4157402;28;20088;-58
2022/10/19 11:35:23;;;;;;;2.75;1.10;;;25.40;99.20;;;;;;4154252;28;20053;-58
2022/10/19 11:37:59;;;;;;;4.65;1.15;;;25.00;99.90;;;;;;4154316;28;20048;-58
2022/10/19 11:40:47;;;;;;;7.97;1.77;;;25.60;99.90;;;;;;4151255;28;20541;-57
2022/10/19 11:43:39;;;;;;;1.55;1.08;;;25.50;99.70;;;;;;4146858;28;20057;-58
2022/10/19 11:46:18;;;;;;;1.45;1.00;;;25.90;99.90;;;;;;4149024;28;20133;-58
2022/10/19 11:48:47;;;;;;;1.30;1.00;;;25.90;99.90;;;;;;4151211;28;20132;-58
2022/10/19 11:51:19;;;;;;;1.67;1.05;;;25.70;98.70;;;;;;4155147;28;20416;-58
2022/10/19 11:53:41;;;;;;;1.35;1.25;;;26.20;99.90;;;;;;4155124;28;20115;-58
2022/10/19 11:56:17;;;;;;;1.83;1.10;;;26.70;98.30;;;;;;4151551;28;20076;-58
2022/10/19 11:58:47;;;;;;;1.40;1.00;;;26.50;99.90;;;;;;4149172;28;20053;-58
2022/10/19 12:01:23;;;;;;;2.70;1.00;;;26.60;97.90;;;;;;4159314;28;20096;-58
2022/10/19 12:04:20;;;;;;;1.45;0.90;;;26.70;98.80;;;;;;4158316;28;20064;-58
2022/10/19 12:07:25;;;;;;;1.38;0.90;;;26.70;98.30;;;;;;4158887;28;20053;-59
2022/10/19 12:09:54;;;;;;;2.55;0.90;;;26.40;97.60;;;;;;4155867;28;20099;-58
2022/10/19 12:12:46;;;;;;;5.18;1.67;;;26.70;99.40;;;;;;4154422;28;20543;-59
2022/10/19 12:15:27;;;;;;;1.10;0.98;;;26.90;97.90;;;;;;4151411;28;20049;-59
2022/10/19 12:17:50;;;;;;;4.53;1.08;;;26.40;96.90;;;;;;4161168;28;20087;-58
2022/10/19 12:20:37;;;;;;;5.28;1.00;;;25.90;98.50;;;;;;4147058;28;20056;-58
2022/10/19 12:22:58;;;;;;;4.47;0.98;;;26.30;97.50;;;;;;4158948;28;20417;-56
2022/10/19 12:25:20;;;;;;;1.00;1.00;;;26.40;96.80;;;;;;4154152;28;20080;-58
2022/10/19 12:27:42;;;;;;;2.05;0.90;;;26.50;98.20;;;;;;4151808;28;20524;-58
2022/10/19 12:30:14;;;;;;;4.15;1.00;;;26.70;97.30;;;;;;4153417;28;20052;-59
2022/10/19 12:33:14;;;;;;;1.17;0.90;;;26.70;96.40;;;;;;4151065;28;20172;-58
2022/10/19 12:35:57;;;;;;;1.77;0.90;;;27.00;97.40;;;;;;4154504;28;20057;-59
2022/10/19 12:38:41;;;;;;;0.85;0.85;;;26.80;97.90;;;;;;4148110;28;20053;-57
2022/10/19 12:41:30;;;;;;;1.10;1.00;;;26.90;96.50;;;;;;4146461;28;20065;-58
2022/10/19 12:43:59;;;;;;;2.78;1.25;;;26.70;96.60;;;;;;4148922;28;20056;-58
2022/10/19 12:46:22;;;;;;;0.80;0.80;;;26.70;97.10;;;;;;4151631;28;20343;-59